sensor_id;sensor_type;location;lat;lon;timestamp;pressure;altitude;pressure_sealevel;temperature
20730;BMP280;10526;50.850;12.928;2023-12-04T00:02:34;98256.78;;;-6.20
20730;BMP280;10526;50.850;12.928;2023-12-04T00:06:56;98247.25;;;-6.29
20730;BMP280;10526;50.850;12.928;2023-12-04T00:11:19;98233.28;;;-6.38
20730;BMP280;10526;50.850;12.928;2023-12-04T00:15:41;98240.84;;;-6.42
20730;BMP280;10526;50.850;12.928;2023-12-04T00:20:03;98239.53;;;-6.45
20730;BMP280;10526;50.850;12.928;2023-12-04T00:24:25;98227.91;;;-6.52
20730;BMP280;10526;50.850;12.928;2023-12-04T00:28:48;98232.34;;;-6.58
20730;BMP280;10526;50.850;12.928;2023-12-04T00:33:10;98243.50;;;-6.57
20730;BMP280;10526;50.850;12.928;2023-12-04T00:37:32;98243.94;;;-6.50
20730;BMP280;10526;50.850;12.928;2023-12-04T00:41:59;98241.34;;;-6.50
20730;BMP280;10526;50.850;12.928;2023-12-04T00:46:21;98240.59;;;-6.51
20730;BMP280;10526;50.850;12.928;2023-12-04T00:50:43;98253.81;;;-6.47
20730;BMP280;10526;50.850;12.928;2023-12-04T00:55:06;98242.63;;;-6.43
20730;BMP280;10526;50.850;12.928;2023-12-04T00:59:28;98242.59;;;-6.32
20730;BMP280;10526;50.850;12.928;2023-12-04T01:03:50;98232.13;;;-6.17
20730;BMP280;10526;50.850;12.928;2023-12-04T01:08:12;98239.28;;;-5.99
20730;BMP280;10526;50.850;12.928;2023-12-04T01:12:34;98239.72;;;-5.86
20730;BMP280;10526;50.850;12.928;2023-12-04T01:16:57;98237.06;;;-5.76
20730;BMP280;10526;50.850;12.928;2023-12-04T01:21:18;98222.97;;;-5.70
20730;BMP280;10526;50.850;12.928;2023-12-04T01:25:41;98228.38;;;-5.61
20730;BMP280;10526;50.850;12.928;2023-12-04T01:30:06;98220.25;;;-5.55
20730;BMP280;10526;50.850;12.928;2023-12-04T01:34:30;98215.00;;;-5.44
20730;BMP280;10526;50.850;12.928;2023-12-04T01:38:52;98219.84;;;-5.38
20730;BMP280;10526;50.850;12.928;2023-12-04T01:43:14;98213.28;;;-5.30
20730;BMP280;10526;50.850;12.928;2023-12-04T01:47:37;98202.34;;;-5.27
20730;BMP280;10526;50.850;12.928;2023-12-04T01:51:59;98209.13;;;-5.31
20730;BMP280;10526;50.850;12.928;2023-12-04T01:56:22;98199.44;;;-5.44
20730;BMP280;10526;50.850;12.928;2023-12-04T02:00:44;98195.44;;;-5.61
20730;BMP280;10526;50.850;12.928;2023-12-04T02:05:08;98193.19;;;-5.73
20730;BMP280;10526;50.850;12.928;2023-12-04T02:09:30;98181.13;;;-5.87
20730;BMP280;10526;50.850;12.928;2023-12-04T02:13:53;98166.75;;;-6.04
20730;BMP280;10526;50.850;12.928;2023-12-04T02:18:17;98156.75;;;-6.21
20730;BMP280;10526;50.850;12.928;2023-12-04T02:22:40;98154.97;;;-6.25
20730;BMP280;10526;50.850;12.928;2023-12-04T02:27:38;98144.59;;;-6.25
20730;BMP280;10526;50.850;12.928;2023-12-04T02:32:04;98133.28;;;-6.34
20730;BMP280;10526;50.850;12.928;2023-12-04T02:36:27;98126.06;;;-6.43
20730;BMP280;10526;50.850;12.928;2023-12-04T02:40:51;98117.31;;;-6.52
20730;BMP280;10526;50.850;12.928;2023-12-04T02:45:13;98119.44;;;-6.59
20730;BMP280;10526;50.850;12.928;2023-12-04T02:49:35;98121.59;;;-6.71
20730;BMP280;10526;50.850;12.928;2023-12-04T02:53:57;98114.09;;;-6.78
20730;BMP280;10526;50.850;12.928;2023-12-04T02:58:19;98110.75;;;-6.78
20730;BMP280;10526;50.850;12.928;2023-12-04T03:02:41;98108.72;;;-6.87
20730;BMP280;10526;50.850;12.928;2023-12-04T03:07:03;98099.78;;;-7.10
20730;BMP280;10526;50.850;12.928;2023-12-04T03:11:25;98103.97;;;-7.19
20730;BMP280;10526;50.850;12.928;2023-12-04T03:15:48;98100.31;;;-7.18
20730;BMP280;10526;50.850;12.928;2023-12-04T03:20:11;98089.69;;;-7.16
20730;BMP280;10526;50.850;12.928;2023-12-04T03:24:33;98093.84;;;-7.20
20730;BMP280;10526;50.850;12.928;2023-12-04T03:28:55;98090.03;;;-7.33
20730;BMP280;10526;50.850;12.928;2023-12-04T03:33:18;98093.97;;;-7.46
20730;BMP280;10526;50.850;12.928;2023-12-04T03:37:40;98092.41;;;-7.52
20730;BMP280;10526;50.850;12.928;2023-12-04T03:42:02;98085.72;;;-7.58
20730;BMP280;10526;50.850;12.928;2023-12-04T03:46:24;98090.88;;;-7.53
20730;BMP280;10526;50.850;12.928;2023-12-04T03:50:47;98077.41;;;-7.50
20730;BMP280;10526;50.850;12.928;2023-12-04T03:55:09;98074.78;;;-7.40
20730;BMP280;10526;50.850;12.928;2023-12-04T03:59:31;98067.53;;;-7.33
20730;BMP280;10526;50.850;12.928;2023-12-04T04:03:54;98056.56;;;-7.14
20730;BMP280;10526;50.850;12.928;2023-12-04T04:08:16;98057.47;;;-6.90
20730;BMP280;10526;50.850;12.928;2023-12-04T04:12:38;98060.44;;;-6.67
20730;BMP280;10526;50.850;12.928;2023-12-04T04:17:00;98057.47;;;-6.45
20730;BMP280;10526;50.850;12.928;2023-12-04T04:21:22;98056.06;;;-6.32
20730;BMP280;10526;50.850;12.928;2023-12-04T04:25:44;98068.28;;;-6.09
20730;BMP280;10526;50.850;12.928;2023-12-04T04:30:07;98061.59;;;-5.86
20730;BMP280;10526;50.850;12.928;2023-12-04T04:34:30;98048.13;;;-5.64
20730;BMP280;10526;50.850;12.928;2023-12-04T04:38:52;98045.06;;;-5.47
20730;BMP280;10526;50.850;12.928;2023-12-04T04:43:14;98047.75;;;-5.33
20730;BMP280;10526;50.850;12.928;2023-12-04T04:47:37;98044.66;;;-5.16
20730;BMP280;10526;50.850;12.928;2023-12-04T04:51:59;98035.13;;;-5.02
20730;BMP280;10526;50.850;12.928;2023-12-04T04:56:21;98035.34;;;-4.98
20730;BMP280;10526;50.850;12.928;2023-12-04T05:00:46;98028.97;;;-4.87
20730;BMP280;10526;50.850;12.928;2023-12-04T05:05:09;98019.31;;;-4.68
20730;BMP280;10526;50.850;12.928;2023-12-04T05:09:31;98006.53;;;-4.50
20730;BMP280;10526;50.850;12.928;2023-12-04T05:13:53;97997.25;;;-4.38
20730;BMP280;10526;50.850;12.928;2023-12-04T05:18:15;97973.38;;;-4.26
20730;BMP280;10526;50.850;12.928;2023-12-04T05:22:37;97969.06;;;-4.17
20730;BMP280;10526;50.850;12.928;2023-12-04T05:27:00;97968.38;;;-4.09
20730;BMP280;10526;50.850;12.928;2023-12-04T05:31:22;97972.41;;;-4.16
20730;BMP280;10526;50.850;12.928;2023-12-04T05:35:44;97961.72;;;-4.28
20730;BMP280;10526;50.850;12.928;2023-12-04T05:40:07;97961.41;;;-4.41
20730;BMP280;10526;50.850;12.928;2023-12-04T05:44:31;97963.25;;;-4.55
20730;BMP280;10526;50.850;12.928;2023-12-04T05:48:53;97968.69;;;-4.70
20730;BMP280;10526;50.850;12.928;2023-12-04T05:53:16;97954.63;;;-4.83
20730;BMP280;10526;50.850;12.928;2023-12-04T05:57:39;97948.47;;;-4.87
20730;BMP280;10526;50.850;12.928;2023-12-04T06:02:02;97945.63;;;-4.72
20730;BMP280;10526;50.850;12.928;2023-12-04T06:06:24;97942.19;;;-4.53
20730;BMP280;10526;50.850;12.928;2023-12-04T06:10:46;97946.31;;;-4.39
20730;BMP280;10526;50.850;12.928;2023-12-04T06:15:09;97925.16;;;-4.32
20730;BMP280;10526;50.850;12.928;2023-12-04T06:19:31;97922.34;;;-4.22
20730;BMP280;10526;50.850;12.928;2023-12-04T06:23:54;97912.22;;;-4.10
20730;BMP280;10526;50.850;12.928;2023-12-04T06:28:16;97910.88;;;-4.07
20730;BMP280;10526;50.850;12.928;2023-12-04T06:32:39;97910.22;;;-4.13
20730;BMP280;10526;50.850;12.928;2023-12-04T06:37:02;97906.44;;;-4.06
20730;BMP280;10526;50.850;12.928;2023-12-04T06:41:25;97918.47;;;-3.97
20730;BMP280;10526;50.850;12.928;2023-12-04T06:45:47;97908.84;;;-3.96
20730;BMP280;10526;50.850;12.928;2023-12-04T06:50:10;97919.34;;;-4.01
20730;BMP280;10526;50.850;12.928;2023-12-04T06:54:32;97918.88;;;-4.03
20730;BMP280;10526;50.850;12.928;2023-12-04T06:58:54;97909.69;;;-3.87
20730;BMP280;10526;50.850;12.928;2023-12-04T07:03:16;97906.69;;;-3.58
20730;BMP280;10526;50.850;12.928;2023-12-04T07:07:38;97909.63;;;-3.37
20730;BMP280;10526;50.850;12.928;2023-12-04T07:12:01;97900.56;;;-3.17
20730;BMP280;10526;50.850;12.928;2023-12-04T07:16:24;97900.75;;;-3.05
20730;BMP280;10526;50.850;12.928;2023-12-04T07:20:47;97890.13;;;-2.95
20730;BMP280;10526;50.850;12.928;2023-12-04T07:25:09;97887.13;;;-2.79
20730;BMP280;10526;50.850;12.928;2023-12-04T07:29:31;97887.16;;;-2.62
20730;BMP280;10526;50.850;12.928;2023-12-04T07:33:54;97889.19;;;-2.50
20730;BMP280;10526;50.850;12.928;2023-12-04T07:38:17;97888.91;;;-2.40
20730;BMP280;10526;50.850;12.928;2023-12-04T07:42:39;97887.91;;;-2.30
20730;BMP280;10526;50.850;12.928;2023-12-04T07:47:01;97879.75;;;-2.20
20730;BMP280;10526;50.850;12.928;2023-12-04T07:51:23;97888.22;;;-2.06
20730;BMP280;10526;50.850;12.928;2023-12-04T07:55:45;97888.38;;;-1.85
20730;BMP280;10526;50.850;12.928;2023-12-04T08:00:09;97895.88;;;-1.66
20730;BMP280;10526;50.850;12.928;2023-12-04T08:04:32;97897.09;;;-1.55
20730;BMP280;10526;50.850;12.928;2023-12-04T08:08:54;97901.97;;;-1.36
20730;BMP280;10526;50.850;12.928;2023-12-04T08:13:17;97891.69;;;-1.24
20730;BMP280;10526;50.850;12.928;2023-12-04T08:17:39;97896.28;;;-1.20
20730;BMP280;10526;50.850;12.928;2023-12-04T08:22:02;97898.72;;;-1.15
20730;BMP280;10526;50.850;12.928;2023-12-04T08:26:25;97885.94;;;-1.00
20730;BMP280;10526;50.850;12.928;2023-12-04T08:30:47;97892.84;;;-0.95
20730;BMP280;10526;50.850;12.928;2023-12-04T08:35:10;97880.03;;;-0.88
20730;BMP280;10526;50.850;12.928;2023-12-04T08:39:32;97877.06;;;-0.78
20730;BMP280;10526;50.850;12.928;2023-12-04T08:43:54;97872.19;;;-0.88
20730;BMP280;10526;50.850;12.928;2023-12-04T08:48:17;97874.78;;;-0.79
20730;BMP280;10526;50.850;12.928;2023-12-04T08:52:39;97875.88;;;-0.59
20730;BMP280;10526;50.850;12.928;2023-12-04T08:57:04;97879.94;;;-0.41
20730;BMP280;10526;50.850;12.928;2023-12-04T09:01:27;97857.72;;;-0.26
20730;BMP280;10526;50.850;12.928;2023-12-04T09:05:49;97866.19;;;-0.08
20730;BMP280;10526;50.850;12.928;2023-12-04T09:10:13;97863.81;;;-0.01
20730;BMP280;10526;50.850;12.928;2023-12-04T09:14:56;97849.88;;;0.07
20730;BMP280;10526;50.850;12.928;2023-12-04T09:19:18;97858.69;;;0.23
20730;BMP280;10526;50.850;12.928;2023-12-04T09:23:40;97857.28;;;0.38
20730;BMP280;10526;50.850;12.928;2023-12-04T09:28:02;97857.63;;;0.49
20730;BMP280;10526;50.850;12.928;2023-12-04T09:32:24;97863.34;;;0.63
20730;BMP280;10526;50.850;12.928;2023-12-04T09:36:47;97860.97;;;1.07
20730;BMP280;10526;50.850;12.928;2023-12-04T09:41:13;97859.84;;;1.45
20730;BMP280;10526;50.850;12.928;2023-12-04T09:45:38;97856.59;;;2.32
20730;BMP280;10526;50.850;12.928;2023-12-04T09:50:00;97859.47;;;3.41
20730;BMP280;10526;50.850;12.928;2023-12-04T09:54:23;97853.31;;;4.84
20730;BMP280;10526;50.850;12.928;2023-12-04T09:58:46;97850.78;;;3.99
20730;BMP280;10526;50.850;12.928;2023-12-04T10:03:11;97859.88;;;4.01
20730;BMP280;10526;50.850;12.928;2023-12-04T10:07:34;97838.66;;;4.14
20730;BMP280;10526;50.850;12.928;2023-12-04T10:11:58;97842.34;;;3.51
20730;BMP280;10526;50.850;12.928;2023-12-04T10:16:35;97826.53;;;2.61
20730;BMP280;10526;50.850;12.928;2023-12-04T10:20:59;97814.34;;;2.09
20730;BMP280;10526;50.850;12.928;2023-12-04T10:25:26;97820.03;;;1.55
20730;BMP280;10526;50.850;12.928;2023-12-04T10:29:50;97809.44;;;1.23
20730;BMP280;10526;50.850;12.928;2023-12-04T10:34:16;97804.84;;;0.96
20730;BMP280;10526;50.850;12.928;2023-12-04T10:38:39;97784.75;;;0.76
20730;BMP280;10526;50.850;12.928;2023-12-04T10:47:34;97786.78;;;0.33
20730;BMP280;10526;50.850;12.928;2023-12-04T10:51:57;97767.94;;;0.52
20730;BMP280;10526;50.850;12.928;2023-12-04T10:56:33;97759.31;;;0.76
20730;BMP280;10526;50.850;12.928;2023-12-04T11:00:58;97739.63;;;0.94
20730;BMP280;10526;50.850;12.928;2023-12-04T11:05:26;97741.38;;;1.43
20730;BMP280;10526;50.850;12.928;2023-12-04T11:09:49;97733.06;;;1.41
20730;BMP280;10526;50.850;12.928;2023-12-04T11:14:14;97729.53;;;1.21
20730;BMP280;10526;50.850;12.928;2023-12-04T11:18:43;97716.56;;;1.12
20730;BMP280;10526;50.850;12.928;2023-12-04T11:23:08;97732.03;;;1.30
20730;BMP280;10526;50.850;12.928;2023-12-04T11:27:31;97709.03;;;1.39
20730;BMP280;10526;50.850;12.928;2023-12-04T11:31:53;97694.94;;;1.15
20730;BMP280;10526;50.850;12.928;2023-12-04T11:36:16;97687.03;;;1.28
20730;BMP280;10526;50.850;12.928;2023-12-04T11:40:40;97685.06;;;1.40
20730;BMP280;10526;50.850;12.928;2023-12-04T11:45:05;97665.31;;;1.59
20730;BMP280;10526;50.850;12.928;2023-12-04T11:49:30;97671.44;;;1.63
20730;BMP280;10526;50.850;12.928;2023-12-04T11:53:52;97668.00;;;1.46
20730;BMP280;10526;50.850;12.928;2023-12-04T11:58:16;97661.44;;;1.25
20730;BMP280;10526;50.850;12.928;2023-12-04T12:07:33;97657.75;;;1.57
20730;BMP280;10526;50.850;12.928;2023-12-04T12:11:56;97655.50;;;1.71
20730;BMP280;10526;50.850;12.928;2023-12-04T12:16:20;97657.81;;;1.89
20730;BMP280;10526;50.850;12.928;2023-12-04T12:20:44;97647.72;;;1.59
20730;BMP280;10526;50.850;12.928;2023-12-04T12:25:08;97638.72;;;1.60
20730;BMP280;10526;50.850;12.928;2023-12-04T12:29:30;97642.03;;;1.57
20730;BMP280;10526;50.850;12.928;2023-12-04T12:33:52;97624.84;;;1.44
20730;BMP280;10526;50.850;12.928;2023-12-04T12:38:19;97627.19;;;1.33
20730;BMP280;10526;50.850;12.928;2023-12-04T12:42:41;97617.22;;;1.23
20730;BMP280;10526;50.850;12.928;2023-12-04T12:47:09;97604.72;;;1.04
20730;BMP280;10526;50.850;12.928;2023-12-04T12:51:32;97594.25;;;1.04
20730;BMP280;10526;50.850;12.928;2023-12-04T12:55:55;97595.75;;;1.05
20730;BMP280;10526;50.850;12.928;2023-12-04T13:00:18;97581.69;;;0.97
20730;BMP280;10526;50.850;12.928;2023-12-04T13:04:42;97576.78;;;0.96
20730;BMP280;10526;50.850;12.928;2023-12-04T13:09:05;97579.63;;;0.91
20730;BMP280;10526;50.850;12.928;2023-12-04T13:13:28;97562.72;;;0.88
20730;BMP280;10526;50.850;12.928;2023-12-04T13:17:52;97552.31;;;0.92
20730;BMP280;10526;50.850;12.928;2023-12-04T13:22:14;97555.03;;;0.95
20730;BMP280;10526;50.850;12.928;2023-12-04T13:26:36;97547.19;;;0.95
20730;BMP280;10526;50.850;12.928;2023-12-04T13:30:59;97530.28;;;0.93
20730;BMP280;10526;50.850;12.928;2023-12-04T13:35:21;97532.47;;;0.91
20730;BMP280;10526;50.850;12.928;2023-12-04T13:39:43;97533.22;;;0.91
20730;BMP280;10526;50.850;12.928;2023-12-04T13:44:13;97534.56;;;0.85
20730;BMP280;10526;50.850;12.928;2023-12-04T13:48:37;97540.38;;;0.79
20730;BMP280;10526;50.850;12.928;2023-12-04T13:53:02;97524.66;;;0.79
20730;BMP280;10526;50.850;12.928;2023-12-04T13:57:24;97512.66;;;0.78
20730;BMP280;10526;50.850;12.928;2023-12-04T14:01:54;97502.84;;;0.74
20730;BMP280;10526;50.850;12.928;2023-12-04T14:06:22;97496.75;;;0.70
20730;BMP280;10526;50.850;12.928;2023-12-04T14:10:44;97491.41;;;0.67
20730;BMP280;10526;50.850;12.928;2023-12-04T14:15:07;97487.59;;;0.64
20730;BMP280;10526;50.850;12.928;2023-12-04T14:19:30;97479.31;;;0.62
20730;BMP280;10526;50.850;12.928;2023-12-04T14:23:52;97471.50;;;0.50
20730;BMP280;10526;50.850;12.928;2023-12-04T14:28:14;97472.84;;;0.44
20730;BMP280;10526;50.850;12.928;2023-12-04T14:32:39;97476.75;;;0.38
20730;BMP280;10526;50.850;12.928;2023-12-04T14:37:09;97477.84;;;0.21
20730;BMP280;10526;50.850;12.928;2023-12-04T14:41:31;97482.34;;;0.08
20730;BMP280;10526;50.850;12.928;2023-12-04T14:45:53;97467.75;;;-0.05
20730;BMP280;10526;50.850;12.928;2023-12-04T14:50:15;97455.78;;;-0.18
20730;BMP280;10526;50.850;12.928;2023-12-04T14:54:37;97454.28;;;-0.32
20730;BMP280;10526;50.850;12.928;2023-12-04T14:59:14;97440.75;;;-0.34
20730;BMP280;10526;50.850;12.928;2023-12-04T15:03:54;97428.53;;;-0.42
20730;BMP280;10526;50.850;12.928;2023-12-04T15:08:20;97439.09;;;-0.51
20730;BMP280;10526;50.850;12.928;2023-12-04T15:12:45;97440.75;;;-0.58
20730;BMP280;10526;50.850;12.928;2023-12-04T15:17:23;97424.75;;;-0.69
20730;BMP280;10526;50.850;12.928;2023-12-04T15:21:55;97432.91;;;-0.70
20730;BMP280;10526;50.850;12.928;2023-12-04T15:26:18;97427.22;;;-0.85
20730;BMP280;10526;50.850;12.928;2023-12-04T15:30:40;97414.91;;;-0.97
20730;BMP280;10526;50.850;12.928;2023-12-04T15:35:09;97422.00;;;-1.09
20730;BMP280;10526;50.850;12.928;2023-12-04T15:39:34;97410.00;;;-1.23
20730;BMP280;10526;50.850;12.928;2023-12-04T15:43:56;97390.28;;;-1.32
20730;BMP280;10526;50.850;12.928;2023-12-04T15:48:18;97392.19;;;-1.41
20730;BMP280;10526;50.850;12.928;2023-12-04T15:52:40;97387.94;;;-1.46
20730;BMP280;10526;50.850;12.928;2023-12-04T15:57:04;97384.44;;;-1.50
20730;BMP280;10526;50.850;12.928;2023-12-04T16:01:27;97371.72;;;-1.52
20730;BMP280;10526;50.850;12.928;2023-12-04T16:05:49;97373.13;;;-1.54
20730;BMP280;10526;50.850;12.928;2023-12-04T16:10:12;97363.13;;;-1.52
20730;BMP280;10526;50.850;12.928;2023-12-04T16:14:37;97363.13;;;-1.52
20730;BMP280;10526;50.850;12.928;2023-12-04T16:18:59;97357.16;;;-1.53
20730;BMP280;10526;50.850;12.928;2023-12-04T16:23:22;97356.50;;;-1.50
20730;BMP280;10526;50.850;12.928;2023-12-04T16:27:45;97336.38;;;-1.49
20730;BMP280;10526;50.850;12.928;2023-12-04T16:32:07;97337.44;;;-1.50
20730;BMP280;10526;50.850;12.928;2023-12-04T16:36:29;97332.56;;;-1.52
20730;BMP280;10526;50.850;12.928;2023-12-04T16:40:52;97327.97;;;-1.55
20730;BMP280;10526;50.850;12.928;2023-12-04T16:45:14;97328.53;;;-1.61
20730;BMP280;10526;50.850;12.928;2023-12-04T16:49:36;97310.88;;;-1.77
20730;BMP280;10526;50.850;12.928;2023-12-04T16:53:58;97322.72;;;-1.79
20730;BMP280;10526;50.850;12.928;2023-12-04T16:58:21;97318.91;;;-1.82
20730;BMP280;10526;50.850;12.928;2023-12-04T17:02:43;97316.28;;;-1.82
20730;BMP280;10526;50.850;12.928;2023-12-04T17:07:05;97316.75;;;-1.80
20730;BMP280;10526;50.850;12.928;2023-12-04T17:11:27;97325.75;;;-1.77
20730;BMP280;10526;50.850;12.928;2023-12-04T17:15:49;97327.28;;;-1.76
20730;BMP280;10526;50.850;12.928;2023-12-04T17:20:12;97311.81;;;-1.81
20730;BMP280;10526;50.850;12.928;2023-12-04T17:24:34;97324.59;;;-1.88
20730;BMP280;10526;50.850;12.928;2023-12-04T17:28:56;97317.88;;;-1.89
20730;BMP280;10526;50.850;12.928;2023-12-04T17:33:19;97327.88;;;-1.91
20730;BMP280;10526;50.850;12.928;2023-12-04T17:37:41;97326.66;;;-1.94
20730;BMP280;10526;50.850;12.928;2023-12-04T17:42:04;97327.75;;;-1.95
20730;BMP280;10526;50.850;12.928;2023-12-04T17:46:26;97332.53;;;-1.97
20730;BMP280;10526;50.850;12.928;2023-12-04T17:50:49;97336.72;;;-2.05
20730;BMP280;10526;50.850;12.928;2023-12-04T17:55:11;97323.78;;;-2.13
20730;BMP280;10526;50.850;12.928;2023-12-04T17:59:33;97319.69;;;-2.23
20730;BMP280;10526;50.850;12.928;2023-12-04T18:03:56;97315.78;;;-2.29
20730;BMP280;10526;50.850;12.928;2023-12-04T18:08:18;97296.16;;;-2.35
20730;BMP280;10526;50.850;12.928;2023-12-04T18:12:41;97293.00;;;-2.41
20730;BMP280;10526;50.850;12.928;2023-12-04T18:17:03;97297.13;;;-2.40
20730;BMP280;10526;50.850;12.928;2023-12-04T18:21:26;97284.84;;;-2.39
20730;BMP280;10526;50.850;12.928;2023-12-04T18:25:49;97287.44;;;-2.39
20730;BMP280;10526;50.850;12.928;2023-12-04T18:30:12;97287.44;;;-2.39
20730;BMP280;10526;50.850;12.928;2023-12-04T18:34:38;97288.22;;;-2.39
20730;BMP280;10526;50.850;12.928;2023-12-04T18:39:01;97281.94;;;-2.38
20730;BMP280;10526;50.850;12.928;2023-12-04T18:43:25;97279.75;;;-2.36
20730;BMP280;10526;50.850;12.928;2023-12-04T18:47:56;97281.72;;;-2.33
20730;BMP280;10526;50.850;12.928;2023-12-04T18:52:20;97283.75;;;-2.30
20730;BMP280;10526;50.850;12.928;2023-12-04T18:56:42;97274.19;;;-2.26
20730;BMP280;10526;50.850;12.928;2023-12-04T19:01:04;97264.53;;;-2.25
20730;BMP280;10526;50.850;12.928;2023-12-04T19:05:27;97263.13;;;-2.23
20730;BMP280;10526;50.850;12.928;2023-12-04T19:09:53;97262.91;;;-2.17
20730;BMP280;10526;50.850;12.928;2023-12-04T19:14:15;97278.03;;;-2.11
20730;BMP280;10526;50.850;12.928;2023-12-04T19:18:37;97268.03;;;-2.09
20730;BMP280;10526;50.850;12.928;2023-12-04T19:23:00;97268.50;;;-2.07
20730;BMP280;10526;50.850;12.928;2023-12-04T19:27:22;97247.94;;;-2.08
20730;BMP280;10526;50.850;12.928;2023-12-04T19:31:44;97241.19;;;-2.09
20730;BMP280;10526;50.850;12.928;2023-12-04T19:36:08;97244.25;;;-2.07
20730;BMP280;10526;50.850;12.928;2023-12-04T19:40:30;97251.00;;;-2.06
20730;BMP280;10526;50.850;12.928;2023-12-04T19:44:52;97245.13;;;-2.03
20730;BMP280;10526;50.850;12.928;2023-12-04T19:49:16;97235.88;;;-2.01
20730;BMP280;10526;50.850;12.928;2023-12-04T19:53:39;97228.72;;;-2.04
20730;BMP280;10526;50.850;12.928;2023-12-04T19:58:01;97223.81;;;-2.05
20730;BMP280;10526;50.850;12.928;2023-12-04T20:02:26;97213.84;;;-2.03
20730;BMP280;10526;50.850;12.928;2023-12-04T20:06:48;97213.16;;;-2.00
20730;BMP280;10526;50.850;12.928;2023-12-04T20:11:10;97204.28;;;-1.99
20730;BMP280;10526;50.850;12.928;2023-12-04T20:15:32;97203.19;;;-1.98
20730;BMP280;10526;50.850;12.928;2023-12-04T20:19:54;97197.75;;;-1.93
20730;BMP280;10526;50.850;12.928;2023-12-04T20:24:18;97184.81;;;-1.89
20730;BMP280;10526;50.850;12.928;2023-12-04T20:28:40;97183.09;;;-1.85
20730;BMP280;10526;50.850;12.928;2023-12-04T20:33:03;97175.09;;;-1.80
20730;BMP280;10526;50.850;12.928;2023-12-04T20:37:26;97175.19;;;-1.77
20730;BMP280;10526;50.850;12.928;2023-12-04T20:42:03;97180.84;;;-1.75
20730;BMP280;10526;50.850;12.928;2023-12-04T20:46:26;97169.97;;;-1.77
20730;BMP280;10526;50.850;12.928;2023-12-04T20:50:48;97173.00;;;-1.75
20730;BMP280;10526;50.850;12.928;2023-12-04T20:55:11;97167.78;;;-1.75
20730;BMP280;10526;50.850;12.928;2023-12-04T20:59:33;97163.22;;;-1.78
20730;BMP280;10526;50.850;12.928;2023-12-04T21:03:55;97151.16;;;-1.82
20730;BMP280;10526;50.850;12.928;2023-12-04T21:08:19;97151.91;;;-1.82
20730;BMP280;10526;50.850;12.928;2023-12-04T21:12:41;97158.88;;;-1.86
20730;BMP280;10526;50.850;12.928;2023-12-04T21:17:03;97157.56;;;-1.92
20730;BMP280;10526;50.850;12.928;2023-12-04T21:21:27;97176.00;;;-1.97
20730;BMP280;10526;50.850;12.928;2023-12-04T21:25:49;97155.59;;;-1.95
20730;BMP280;10526;50.850;12.928;2023-12-04T21:30:12;97158.19;;;-1.95
20730;BMP280;10526;50.850;12.928;2023-12-04T21:34:38;97174.16;;;-1.97
20730;BMP280;10526;50.850;12.928;2023-12-04T21:39:01;97156.13;;;-2.02
20730;BMP280;10526;50.850;12.928;2023-12-04T21:43:23;97150.38;;;-2.07
20730;BMP280;10526;50.850;12.928;2023-12-04T21:47:45;97136.88;;;-2.09
20730;BMP280;10526;50.850;12.928;2023-12-04T21:52:08;97133.06;;;-2.12
20730;BMP280;10526;50.850;12.928;2023-12-04T21:56:30;97122.63;;;-2.12
20730;BMP280;10526;50.850;12.928;2023-12-04T22:00:52;97109.81;;;-2.17
20730;BMP280;10526;50.850;12.928;2023-12-04T22:05:14;97125.03;;;-2.19
20730;BMP280;10526;50.850;12.928;2023-12-04T22:09:37;97123.84;;;-2.22
20730;BMP280;10526;50.850;12.928;2023-12-04T22:13:59;97137.97;;;-2.23
20730;BMP280;10526;50.850;12.928;2023-12-04T22:18:22;97099.50;;;-2.26
20730;BMP280;10526;50.850;12.928;2023-12-04T22:22:44;97113.38;;;-2.34
20730;BMP280;10526;50.850;12.928;2023-12-04T22:27:06;97119.66;;;-2.35
20730;BMP280;10526;50.850;12.928;2023-12-04T22:31:28;97095.66;;;-2.40
20730;BMP280;10526;50.850;12.928;2023-12-04T22:35:51;97119.31;;;-2.46
20730;BMP280;10526;50.850;12.928;2023-12-04T22:40:13;97132.66;;;-2.47
20730;BMP280;10526;50.850;12.928;2023-12-04T22:44:35;97124.53;;;-2.46
20730;BMP280;10526;50.850;12.928;2023-12-04T22:48:58;97119.22;;;-2.49
20730;BMP280;10526;50.850;12.928;2023-12-04T22:53:20;97106.59;;;-2.47
20730;BMP280;10526;50.850;12.928;2023-12-04T22:57:43;97104.44;;;-2.45
20730;BMP280;10526;50.850;12.928;2023-12-04T23:02:05;97113.78;;;-2.44
20730;BMP280;10526;50.850;12.928;2023-12-04T23:06:27;97082.50;;;-2.44
20730;BMP280;10526;50.850;12.928;2023-12-04T23:10:50;97096.94;;;-2.47
20730;BMP280;10526;50.850;12.928;2023-12-04T23:15:12;97113.44;;;-2.43
20730;BMP280;10526;50.850;12.928;2023-12-04T23:19:34;97098.16;;;-2.44
20730;BMP280;10526;50.850;12.928;2023-12-04T23:23:56;97090.97;;;-2.47
20730;BMP280;10526;50.850;12.928;2023-12-04T23:28:18;97105.50;;;-2.46
20730;BMP280;10526;50.850;12.928;2023-12-04T23:32:41;97107.25;;;-2.50
20730;BMP280;10526;50.850;12.928;2023-12-04T23:37:03;97083.38;;;-2.52
20730;BMP280;10526;50.850;12.928;2023-12-04T23:41:25;97097.91;;;-2.51
20730;BMP280;10526;50.850;12.928;2023-12-04T23:45:47;97110.94;;;-2.51
20730;BMP280;10526;50.850;12.928;2023-12-04T23:50:16;97100.97;;;-2.49
20730;BMP280;10526;50.850;12.928;2023-12-04T23:54:38;97095.31;;;-2.51
20730;BMP280;10526;50.850;12.928;2023-12-04T23:59:01;97081.84;;;-2.53
